Time;durP1;ratioP1;P1;durP2;ratioP2;P2;SDS_P1;SDS_P2;PMS_P1;PMS_P2;Temp;Humidity;BMP_temperature;BMP_pressure;BME280_temperature;BME280_humidity;BME280_pressure;Samples;Min_cycle;Max_cycle;Signal;HPM_P1;HPM_P2
2024/04/14 00:02:12;;;;;;;10.38;4.55;;;14.50;99.90;;;;;;5365161;26;20004;-82
2024/04/14 00:04:39;;;;;;;15.75;4.68;;;14.50;99.90;;;;;;5394794;26;20004;-81
2024/04/14 00:07:24;;;;;;;11.70;3.90;;;14.40;99.90;;;;;;5338196;26;20018;-83
2024/04/14 00:09:51;;;;;;;13.30;4.22;;;14.40;99.90;;;;;;5369916;26;20008;-82
2024/04/14 00:12:16;;;;;;;13.98;4.25;;;14.30;99.90;;;;;;5374803;26;20023;-81
2024/04/14 00:14:45;;;;;;;10.50;3.90;;;14.30;99.90;;;;;;5367045;26;20082;-81
2024/04/14 00:17:11;;;;;;;10.65;4.28;;;14.30;99.90;;;;;;5370789;26;20020;-81
2024/04/14 00:19:37;;;;;;;12.00;3.97;;;14.20;99.90;;;;;;5370242;26;20446;-82
2024/04/14 00:22:03;;;;;;;15.45;4.35;;;14.10;99.90;;;;;;5374307;26;20014;-81
2024/04/14 00:24:29;;;;;;;11.40;3.67;;;14.10;99.90;;;;;;5373090;26;20000;-81
2024/04/14 00:26:54;;;;;;;10.68;3.45;;;14.10;99.90;;;;;;5380064;26;20007;-81
2024/04/14 00:29:20;;;;;;;9.50;3.58;;;14.10;99.90;;;;;;5372736;26;20446;-80
2024/04/14 00:31:46;;;;;;;10.25;2.67;;;14.00;99.90;;;;;;5378289;26;20376;-81
2024/04/14 00:34:13;;;;;;;10.07;2.58;;;13.90;99.90;;;;;;5361086;26;20015;-81
2024/04/14 00:36:39;;;;;;;8.60;2.45;;;13.90;99.90;;;;;;5373399;26;19996;-81
2024/04/14 00:39:23;;;;;;;7.68;1.90;;;13.80;99.90;;;;;;5390205;26;20022;-78
2024/04/14 00:41:49;;;;;;;13.10;2.97;;;13.70;99.90;;;;;;5372452;26;20009;-80
2024/04/14 00:44:20;;;;;;;10.35;2.05;;;13.60;99.90;;;;;;5377004;26;20008;-80
2024/04/14 00:47:07;;;;;;;9.90;2.50;;;13.50;99.90;;;;;;5362189;26;20004;-81
2024/04/14 00:49:35;;;;;;;8.27;2.20;;;13.40;99.90;;;;;;5373591;26;20027;-81
2024/04/14 00:52:04;;;;;;;7.25;1.85;;;13.30;99.90;;;;;;5378718;26;20004;-80
2024/04/14 00:54:32;;;;;;;8.70;2.15;;;13.20;99.90;;;;;;5367868;26;20013;-80
2024/04/14 00:56:59;;;;;;;6.88;1.80;;;13.10;99.90;;;;;;5362987;26;20016;-80
2024/04/14 00:59:26;;;;;;;6.50;1.73;;;13.00;99.90;;;;;;5383785;26;20009;-81
2024/04/14 01:01:52;;;;;;;7.30;1.80;;;12.90;99.90;;;;;;5366609;26;20073;-80
2024/04/14 01:04:18;;;;;;;7.35;1.60;;;12.80;99.90;;;;;;5360923;26;20012;-80
2024/04/14 01:06:45;;;;;;;8.15;1.80;;;12.70;99.90;;;;;;5373795;26;20008;-80
2024/04/14 01:09:12;;;;;;;8.30;1.83;;;12.70;99.90;;;;;;5367768;26;20000;-80
2024/04/14 01:11:38;;;;;;;7.03;1.75;;;12.60;99.90;;;;;;5370049;26;20004;-80
2024/04/14 01:14:08;;;;;;;8.65;1.80;;;12.60;99.90;;;;;;5369868;26;20004;-80
2024/04/14 01:16:36;;;;;;;8.07;1.90;;;12.50;99.90;;;;;;5363167;26;20097;-80
2024/04/14 01:19:06;;;;;;;6.85;1.50;;;12.50;99.90;;;;;;5371959;26;20007;-80
2024/04/14 01:21:35;;;;;;;8.32;1.67;;;12.40;99.90;;;;;;5367031;26;20004;-80
2024/04/14 01:24:01;;;;;;;6.50;2.00;;;12.40;99.90;;;;;;5372017;26;20000;-80
2024/04/14 01:26:27;;;;;;;8.27;2.00;;;12.40;99.90;;;;;;5373216;26;20592;-81
2024/04/14 01:28:53;;;;;;;7.72;1.80;;;12.30;99.90;;;;;;5359212;26;20013;-80
2024/04/14 01:31:19;;;;;;;9.13;1.77;;;12.20;99.90;;;;;;5368119;26;20011;-81
2024/04/14 01:33:45;;;;;;;8.27;1.90;;;12.20;99.90;;;;;;5371113;26;20019;-81
2024/04/14 01:36:12;;;;;;;9.38;2.17;;;12.20;99.90;;;;;;5364341;26;20336;-81
2024/04/14 01:38:38;;;;;;;10.25;1.85;;;12.10;99.90;;;;;;5371643;26;20004;-81
2024/04/14 01:41:07;;;;;;;8.75;1.67;;;12.10;99.90;;;;;;5371302;26;20602;-80
2024/04/14 01:43:53;;;;;;;6.50;1.50;;;12.00;99.90;;;;;;5398259;26;20015;-80
2024/04/14 01:46:39;;;;;;;6.30;1.65;;;12.00;99.90;;;;;;5373127;26;20015;-81
2024/04/14 01:49:06;;;;;;;6.05;1.60;;;12.00;99.90;;;;;;5350154;26;19996;-81
2024/04/14 01:51:32;;;;;;;8.63;1.83;;;12.00;99.90;;;;;;5372020;26;20004;-81
2024/04/14 01:54:21;;;;;;;7.78;2.00;;;12.00;99.90;;;;;;5329237;26;20008;-81
2024/04/14 01:56:47;;;;;;;8.57;2.05;;;11.90;99.90;;;;;;5370599;26;20008;-81
2024/04/14 01:59:13;;;;;;;8.68;2.28;;;11.90;99.90;;;;;;5372539;26;20004;-81
2024/04/14 02:01:39;;;;;;;7.03;2.00;;;11.90;99.90;;;;;;5360438;26;20308;-80
2024/04/14 02:04:05;;;;;;;12.63;2.22;;;11.80;99.90;;;;;;5371893;26;20455;-80
2024/04/14 02:06:31;;;;;;;8.93;2.20;;;11.80;99.90;;;;;;5380705;26;20955;-80
2024/04/14 02:08:57;;;;;;;11.02;1.77;;;11.80;99.90;;;;;;5374276;26;20343;-80
2024/04/14 02:11:22;;;;;;;8.98;2.33;;;11.70;99.90;;;;;;5372780;26;20022;-80
2024/04/14 02:13:49;;;;;;;8.88;1.65;;;11.70;99.90;;;;;;5369363;26;20433;-81
2024/04/14 02:16:15;;;;;;;8.27;2.08;;;11.60;99.90;;;;;;5375717;26;20023;-81
2024/04/14 02:18:44;;;;;;;7.22;1.70;;;11.60;99.90;;;;;;5375105;26;20008;-81
2024/04/14 02:21:09;;;;;;;10.98;2.25;;;11.60;99.90;;;;;;5380158;26;20008;-81
2024/04/14 02:23:37;;;;;;;10.65;2.67;;;11.50;99.90;;;;;;5397360;26;20023;-81
2024/04/14 02:26:21;;;;;;;11.18;1.85;;;11.50;99.90;;;;;;5346033;26;20020;-81
2024/04/14 02:28:47;;;;;;;10.68;2.75;;;11.40;99.90;;;;;;5375792;26;20000;-81
2024/04/14 02:31:13;;;;;;;8.05;1.92;;;11.40;99.90;;;;;;5373116;26;20461;-81
2024/04/14 02:33:41;;;;;;;13.93;2.45;;;11.40;99.90;;;;;;5368314;26;20020;-81
2024/04/14 02:36:07;;;;;;;7.25;2.10;;;11.40;99.90;;;;;;5371746;26;20048;-80
2024/04/14 02:38:34;;;;;;;11.55;2.10;;;11.30;99.90;;;;;;5359430;26;20028;-81
2024/04/14 02:41:01;;;;;;;11.65;2.30;;;11.40;99.90;;;;;;5367018;26;20367;-80
2024/04/14 02:43:28;;;;;;;9.60;2.13;;;11.40;99.90;;;;;;5365899;26;20032;-81
2024/04/14 02:46:14;;;;;;;8.15;2.00;;;11.30;99.90;;;;;;5341079;26;20012;-81
2024/04/14 02:49:03;;;;;;;10.13;2.40;;;11.30;99.90;;;;;;5368568;26;20028;-83
2024/04/14 02:51:49;;;;;;;11.27;2.22;;;11.20;99.90;;;;;;5373183;26;20439;-81
2024/04/14 02:54:35;;;;;;;10.57;1.70;;;11.20;99.90;;;;;;5364520;26;20137;-82
2024/04/14 02:57:01;;;;;;;10.85;1.60;;;11.20;99.90;;;;;;5374448;26;20024;-81
2024/04/14 02:59:47;;;;;;;9.57;1.98;;;11.20;99.90;;;;;;5348193;26;20040;-81
2024/04/14 03:02:13;;;;;;;9.15;1.80;;;11.20;99.90;;;;;;5370236;26;20000;-81
2024/04/14 03:04:39;;;;;;;8.45;1.90;;;11.10;99.90;;;;;;5374991;26;20012;-81
2024/04/14 03:07:05;;;;;;;10.32;1.60;;;11.10;99.90;;;;;;5374158;26;20004;-81
2024/04/14 03:09:33;;;;;;;9.50;1.92;;;11.10;99.90;;;;;;5367629;26;20458;-81
2024/04/14 03:12:20;;;;;;;11.32;2.42;;;11.10;99.90;;;;;;5329388;26;20012;-81
2024/04/14 03:14:46;;;;;;;7.70;2.20;;;11.00;99.90;;;;;;5371173;26;20074;-81
2024/04/14 03:17:32;;;;;;;10.27;2.30;;;11.00;99.90;;;;;;5352493;26;20478;-82
2024/04/14 03:20:18;;;;;;;13.13;2.15;;;11.00;99.90;;;;;;5372172;26;20001;-81
2024/04/14 03:23:04;;;;;;;9.88;2.25;;;10.90;99.90;;;;;;5340211;26;21022;-81
2024/04/14 03:25:51;;;;;;;10.13;2.17;;;10.90;99.90;;;;;;5358424;26;20339;-81
2024/04/14 03:28:36;;;;;;;8.70;1.60;;;10.90;99.90;;;;;;5360703;26;20736;-81
2024/04/14 03:31:22;;;;;;;7.47;1.90;;;10.80;99.90;;;;;;5364561;26;20023;-81
2024/04/14 03:34:08;;;;;;;8.20;2.17;;;10.80;99.90;;;;;;5359646;26;20012;-80
2024/04/14 03:36:55;;;;;;;11.05;2.28;;;10.80;99.90;;;;;;5366146;26;20033;-81
2024/04/14 03:39:42;;;;;;;11.77;2.40;;;10.70;99.90;;;;;;5348396;26;20015;-81
2024/04/14 03:42:28;;;;;;;7.00;1.77;;;10.70;99.90;;;;;;5350883;26;20023;-81
2024/04/14 03:45:18;;;;;;;9.85;2.38;;;10.70;99.90;;;;;;5360592;26;20016;-81
2024/04/14 03:48:07;;;;;;;9.20;2.15;;;10.70;99.90;;;;;;5367619;26;20012;-81
2024/04/14 03:50:53;;;;;;;9.25;2.28;;;10.70;99.90;;;;;;5370742;26;20583;-81
2024/04/14 03:53:40;;;;;;;12.48;2.25;;;10.60;99.90;;;;;;5372335;26;20015;-81
2024/04/14 03:56:26;;;;;;;6.50;1.70;;;10.60;99.90;;;;;;5366473;26;20012;-81
2024/04/14 03:59:12;;;;;;;13.15;2.35;;;10.60;99.90;;;;;;5349412;26;20000;-81
2024/04/14 04:01:58;;;;;;;8.45;1.92;;;10.60;99.90;;;;;;5364496;26;20022;-80
2024/04/14 04:04:44;;;;;;;9.70;2.08;;;10.50;99.90;;;;;;5347577;26;20513;-81
2024/04/14 04:07:30;;;;;;;11.23;2.17;;;10.50;99.90;;;;;;5370499;26;20004;-80
2024/04/14 04:10:16;;;;;;;11.65;2.70;;;10.50;99.90;;;;;;5369268;26;20015;-81
2024/04/14 04:13:02;;;;;;;9.93;2.72;;;10.40;99.90;;;;;;5353693;26;20451;-81
2024/04/14 04:15:58;;;;;;;7.82;1.83;;;10.50;99.90;;;;;;5364209;26;20028;-81
2024/04/14 04:18:44;;;;;;;8.45;2.33;;;10.40;99.90;;;;;;5369535;26;20012;-81
2024/04/14 04:21:30;;;;;;;10.00;2.25;;;10.40;99.90;;;;;;5332909;26;20012;-81
2024/04/14 04:24:19;;;;;;;9.57;2.08;;;10.40;99.90;;;;;;5370569;26;20473;-81
2024/04/14 04:27:04;;;;;;;7.50;2.35;;;10.40;99.90;;;;;;5337665;26;20005;-81
2024/04/14 04:29:50;;;;;;;9.05;2.20;;;10.30;99.90;;;;;;5367741;26;20368;-81
2024/04/14 04:32:25;;;;;;;12.75;2.05;;;10.30;99.90;;;;;;5369155;26;20549;-82
2024/04/14 04:34:52;;;;;;;11.85;3.03;;;10.20;99.90;;;;;;5355886;26;20085;-81
2024/04/14 04:37:21;;;;;;;10.23;2.15;;;10.20;99.90;;;;;;5371068;26;20408;-81
2024/04/14 04:39:48;;;;;;;14.73;2.92;;;10.10;99.90;;;;;;5342656;26;20471;-80
2024/04/14 04:42:14;;;;;;;10.18;1.83;;;10.10;99.90;;;;;;5361515;26;20063;-81
2024/04/14 04:44:39;;;;;;;8.07;1.90;;;10.10;99.90;;;;;;5372188;26;20020;-80
2024/04/14 04:47:05;;;;;;;14.18;3.08;;;10.10;99.90;;;;;;5388325;26;20556;-80
2024/04/14 04:49:31;;;;;;;8.63;2.20;;;10.10;99.90;;;;;;5370184;26;20031;-81
2024/04/14 04:51:57;;;;;;;9.07;2.28;;;10.00;99.90;;;;;;5384659;26;20008;-81
2024/04/14 04:54:23;;;;;;;11.18;2.45;;;10.00;99.90;;;;;;5370046;26;20004;-81
2024/04/14 04:56:52;;;;;;;10.10;2.20;;;10.00;99.90;;;;;;5370759;26;20008;-82
2024/04/14 04:59:22;;;;;;;10.48;2.03;;;10.00;99.90;;;;;;5365508;26;20014;-81
2024/04/14 05:01:49;;;;;;;9.07;2.30;;;10.00;99.90;;;;;;5349966;26;20008;-80
2024/04/14 05:04:15;;;;;;;9.18;2.47;;;9.90;99.90;;;;;;5372393;26;20036;-81
2024/04/14 05:06:40;;;;;;;10.73;2.40;;;9.90;99.90;;;;;;5374781;26;20005;-80
2024/04/14 05:09:06;;;;;;;10.93;2.38;;;9.90;99.90;;;;;;5366811;26;20095;-81
2024/04/14 05:11:32;;;;;;;9.52;2.13;;;9.90;99.90;;;;;;5371628;26;20077;-81
2024/04/14 05:13:58;;;;;;;9.35;1.90;;;9.90;99.90;;;;;;5370623;26;20081;-81
2024/04/14 05:16:25;;;;;;;10.90;2.00;;;9.90;99.90;;;;;;5373706;26;20008;-81
2024/04/14 05:18:51;;;;;;;9.77;1.83;;;9.90;99.90;;;;;;5368251;26;20335;-80
2024/04/14 05:21:19;;;;;;;9.55;1.92;;;9.90;99.90;;;;;;5368333;26;20035;-81
2024/04/14 05:23:46;;;;;;;8.93;2.10;;;9.90;99.90;;;;;;5372945;26;20000;-81
2024/04/14 05:26:14;;;;;;;10.45;1.90;;;9.90;99.90;;;;;;5372008;26;20081;-81
2024/04/14 05:28:40;;;;;;;8.32;1.88;;;9.80;99.90;;;;;;5372049;26;20008;-80
2024/04/14 05:31:06;;;;;;;10.15;1.95;;;9.80;99.90;;;;;;5372000;26;20011;-80
2024/04/14 05:33:32;;;;;;;12.13;2.63;;;9.90;99.90;;;;;;5371613;26;20528;-80
2024/04/14 05:35:58;;;;;;;11.85;2.10;;;9.90;99.90;;;;;;5362295;26;20036;-80
2024/04/14 05:38:24;;;;;;;9.23;1.90;;;9.90;99.90;;;;;;5373672;26;20023;-80
2024/04/14 05:40:52;;;;;;;9.57;2.20;;;9.80;99.90;;;;;;5367251;26;20014;-81
2024/04/14 05:43:18;;;;;;;12.43;2.13;;;9.90;99.90;;;;;;5372909;26;20320;-81
2024/04/14 05:45:44;;;;;;;8.40;2.10;;;9.90;99.90;;;;;;5375190;26;20011;-81
2024/04/14 05:48:10;;;;;;;11.45;2.25;;;9.90;99.90;;;;;;5374844;26;20019;-81
2024/04/14 05:50:36;;;;;;;12.23;2.17;;;9.90;99.90;;;;;;5372349;26;20008;-81
2024/04/14 05:53:02;;;;;;;10.20;2.17;;;10.00;99.90;;;;;;5365600;26;20131;-81
2024/04/14 05:55:28;;;;;;;10.25;1.98;;;10.00;99.90;;;;;;5395172;26;20440;-81
2024/04/14 05:57:54;;;;;;;10.00;2.15;;;10.00;99.90;;;;;;5365215;26;20448;-81
2024/04/14 06:00:20;;;;;;;7.60;1.70;;;10.00;99.90;;;;;;5360840;26;20019;-81
2024/04/14 06:02:46;;;;;;;9.88;1.95;;;10.00;99.90;;;;;;5381679;26;20332;-81
2024/04/14 06:05:13;;;;;;;10.40;2.10;;;10.00;99.90;;;;;;5366819;26;20368;-81
2024/04/14 06:07:38;;;;;;;9.10;1.92;;;10.00;99.90;;;;;;5376791;26;19996;-81
2024/04/14 06:10:05;;;;;;;9.88;2.28;;;10.10;99.90;;;;;;5372315;26;20013;-81
2024/04/14 06:12:30;;;;;;;12.15;2.10;;;10.10;99.90;;;;;;5366819;26;20022;-80
2024/04/14 06:14:56;;;;;;;7.75;1.63;;;10.10;99.90;;;;;;5359219;26;20468;-81
2024/04/14 06:17:22;;;;;;;9.23;1.92;;;10.20;99.90;;;;;;5385189;26;20000;-80
2024/04/14 06:19:48;;;;;;;13.15;2.20;;;10.10;99.90;;;;;;5374779;26;20004;-80
2024/04/14 06:22:14;;;;;;;10.13;2.05;;;10.10;99.90;;;;;;5375677;26;20015;-80
2024/04/14 06:24:40;;;;;;;9.15;2.08;;;10.20;99.90;;;;;;5381215;26;20008;-80
2024/04/14 06:27:06;;;;;;;6.78;1.95;;;10.20;99.90;;;;;;5389917;26;20446;-80
2024/04/14 06:29:32;;;;;;;12.93;2.47;;;10.20;99.90;;;;;;5375520;26;20023;-80
2024/04/14 06:31:58;;;;;;;9.18;2.13;;;10.30;99.90;;;;;;5376871;26;20008;-80
2024/04/14 06:34:24;;;;;;;8.25;1.90;;;10.30;99.90;;;;;;5363381;26;20001;-80
2024/04/14 06:36:49;;;;;;;8.18;1.95;;;10.40;99.90;;;;;;5371111;26;20012;-80
2024/04/14 06:39:15;;;;;;;6.70;1.70;;;10.40;99.90;;;;;;5372082;26;20063;-81
2024/04/14 06:41:43;;;;;;;8.57;1.92;;;10.50;99.90;;;;;;5354943;26;20697;-80
2024/04/14 06:44:08;;;;;;;6.10;1.38;;;10.50;99.90;;;;;;5369218;26;20350;-79
2024/04/14 06:46:34;;;;;;;9.70;1.95;;;10.50;99.90;;;;;;5358044;26;20019;-80
2024/04/14 06:49:01;;;;;;;12.77;1.95;;;10.60;99.90;;;;;;5372481;26;20004;-80
2024/04/14 06:51:26;;;;;;;10.07;1.88;;;10.60;99.90;;;;;;5375614;26;20011;-80
2024/04/14 06:53:52;;;;;;;14.05;2.17;;;10.60;99.90;;;;;;5374105;26;20008;-79
2024/04/14 06:56:18;;;;;;;7.68;1.63;;;10.60;99.90;;;;;;5374181;26;20111;-81
2024/04/14 06:58:44;;;;;;;6.47;1.65;;;10.60;99.90;;;;;;5370798;26;21362;-80
2024/04/14 07:01:10;;;;;;;13.35;2.22;;;10.70;99.90;;;;;;5363729;26;20016;-80
2024/04/14 07:03:36;;;;;;;8.98;2.17;;;10.80;99.90;;;;;;5374775;26;21167;-79
2024/04/14 07:06:02;;;;;;;9.05;1.70;;;10.70;99.90;;;;;;5385267;26;20012;-80
2024/04/14 07:08:28;;;;;;;8.95;1.73;;;10.80;99.90;;;;;;5374842;26;21422;-80
2024/04/14 07:10:54;;;;;;;10.65;1.85;;;10.80;99.90;;;;;;5368167;26;20032;-80
2024/04/14 07:13:20;;;;;;;8.75;2.17;;;11.00;99.90;;;;;;5366407;26;20005;-80
2024/04/14 07:15:46;;;;;;;5.40;1.27;;;11.10;99.90;;;;;;5375925;26;20023;-81
2024/04/14 07:18:12;;;;;;;7.90;1.65;;;11.10;99.90;;;;;;5371270;26;20026;-82
2024/04/14 07:20:38;;;;;;;9.15;2.17;;;11.30;99.90;;;;;;5372245;26;20001;-80
2024/04/14 07:23:05;;;;;;;8.27;1.70;;;11.30;99.90;;;;;;5370838;26;20044;-81
2024/04/14 07:25:30;;;;;;;8.98;2.13;;;11.50;99.90;;;;;;5358273;26;20015;-81
2024/04/14 07:27:56;;;;;;;9.95;1.67;;;11.60;99.90;;;;;;5372238;26;20008;-80
2024/04/14 07:30:22;;;;;;;9.25;2.00;;;11.70;99.90;;;;;;5368355;26;20324;-80
2024/04/14 07:32:48;;;;;;;9.82;1.92;;;11.90;99.90;;;;;;5367038;26;20008;-81
2024/04/14 07:35:14;;;;;;;5.05;1.30;;;12.00;99.90;;;;;;5360931;26;20455;-81
2024/04/14 07:37:40;;;;;;;10.43;1.63;;;12.10;99.90;;;;;;5372248;26;20982;-81
2024/04/14 07:40:06;;;;;;;9.55;1.30;;;12.20;99.90;;;;;;5373930;26;20019;-81
2024/04/14 07:42:33;;;;;;;6.28;1.20;;;12.30;99.90;;;;;;5367941;26;20078;-81
2024/04/14 07:44:59;;;;;;;8.48;1.60;;;12.30;99.90;;;;;;5378225;26;20016;-80
2024/04/14 07:47:24;;;;;;;6.13;1.48;;;12.40;99.90;;;;;;5373663;26;20008;-81
2024/04/14 07:49:50;;;;;;;7.90;1.75;;;12.40;99.90;;;;;;5367330;26;20019;-80
2024/04/14 07:52:16;;;;;;;8.98;1.45;;;12.50;99.90;;;;;;5381896;26;20008;-82
2024/04/14 07:54:42;;;;;;;8.88;1.83;;;12.60;99.90;;;;;;5376355;26;20353;-82
2024/04/14 07:57:09;;;;;;;8.40;1.67;;;12.80;99.90;;;;;;5372115;26;21564;-81
2024/04/14 07:59:35;;;;;;;13.70;2.53;;;12.80;99.90;;;;;;5369824;26;20081;-82
2024/04/14 08:02:02;;;;;;;6.03;1.30;;;12.90;99.90;;;;;;5372629;26;20490;-82
2024/04/14 08:04:28;;;;;;;7.13;1.67;;;12.90;99.90;;;;;;5372544;26;20374;-82
2024/04/14 08:06:54;;;;;;;5.55;1.13;;;13.00;99.90;;;;;;5368966;26;20016;-83
2024/04/14 08:09:20;;;;;;;6.75;1.23;;;13.10;99.90;;;;;;5376770;26;20000;-83
2024/04/14 08:11:46;;;;;;;8.13;1.83;;;13.20;99.90;;;;;;5375290;26;20085;-82
2024/04/14 08:14:13;;;;;;;6.53;1.25;;;13.30;99.90;;;;;;5364629;26;20027;-83
2024/04/14 08:16:39;;;;;;;8.38;1.40;;;13.30;99.90;;;;;;5359288;26;20012;-82
2024/04/14 08:19:05;;;;;;;8.20;1.60;;;13.40;99.90;;;;;;5350968;26;20001;-82
2024/04/14 08:21:31;;;;;;;6.20;1.50;;;13.50;99.90;;;;;;5383751;26;20040;-84
2024/04/14 08:23:57;;;;;;;7.00;1.50;;;13.60;99.90;;;;;;5375520;26;20363;-83
2024/04/14 08:26:23;;;;;;;8.20;1.23;;;13.70;99.90;;;;;;5373079;26;20004;-81
2024/04/14 08:28:49;;;;;;;7.22;1.35;;;13.90;99.90;;;;;;5372835;26;20008;-83
2024/04/14 08:31:15;;;;;;;5.22;1.08;;;14.00;99.90;;;;;;5351704;26;20355;-82
2024/04/14 08:33:40;;;;;;;8.30;1.58;;;14.10;99.90;;;;;;5361096;26;20123;-83
2024/04/14 08:36:06;;;;;;;7.55;1.77;;;14.00;99.70;;;;;;5365414;26;20019;-81
2024/04/14 08:38:32;;;;;;;3.78;1.40;;;13.90;99.60;;;;;;5374155;26;20004;-83
2024/04/14 08:40:58;;;;;;;7.13;1.40;;;14.00;99.70;;;;;;5359408;26;20004;-82
2024/04/14 08:43:26;;;;;;;5.75;1.00;;;14.10;99.50;;;;;;5369896;26;20036;-82
2024/04/14 08:45:56;;;;;;;7.45;1.50;;;14.30;99.60;;;;;;5368345;26;20018;-82
2024/04/14 08:48:24;;;;;;;6.82;1.45;;;14.40;99.90;;;;;;5357315;26;20008;-83
2024/04/14 08:50:51;;;;;;;4.90;0.82;;;14.40;98.10;;;;;;5371099;26;20870;-83
2024/04/14 08:53:24;;;;;;;3.92;1.05;;;14.20;97.70;;;;;;5370925;26;20001;-82
2024/04/14 08:55:50;;;;;;;5.43;1.45;;;14.00;98.30;;;;;;5369079;26;20004;-82
2024/04/14 08:58:20;;;;;;;7.25;1.20;;;14.00;99.00;;;;;;5373314;26;20074;-82
2024/04/14 09:00:55;;;;;;;5.32;1.05;;;14.10;99.90;;;;;;5355246;26;20034;-83
2024/04/14 09:03:22;;;;;;;5.38;0.95;;;14.20;99.50;;;;;;5363728;26;20379;-82
2024/04/14 09:05:48;;;;;;;6.63;1.67;;;14.30;99.20;;;;;;5375897;26;20008;-80
2024/04/14 09:08:14;;;;;;;6.80;1.58;;;14.40;99.90;;;;;;5372555;26;20008;-81
2024/04/14 09:10:40;;;;;;;6.93;1.85;;;14.50;99.40;;;;;;5369447;26;20080;-80
2024/04/14 09:13:07;;;;;;;5.68;1.20;;;14.60;99.70;;;;;;5370636;26;20008;-80
2024/04/14 09:15:39;;;;;;;9.73;1.70;;;14.60;99.40;;;;;;5367663;26;20004;-80
2024/04/14 09:18:05;;;;;;;6.65;1.77;;;14.50;98.90;;;;;;5354450;26;20017;-80
2024/04/14 09:20:32;;;;;;;7.97;1.52;;;14.40;99.70;;;;;;5371825;26;20000;-81
2024/04/14 09:22:58;;;;;;;6.80;1.25;;;14.30;99.90;;;;;;5395586;26;20000;-81
2024/04/14 09:25:24;;;;;;;8.98;2.25;;;14.40;99.90;;;;;;5365126;26;20000;-81
2024/04/14 09:28:06;;;;;;;4.65;1.10;;;14.50;99.90;;;;;;5369846;26;20020;-81
2024/04/14 09:30:33;;;;;;;5.53;1.08;;;14.60;99.90;;;;;;5374661;26;20015;-81
2024/04/14 09:32:59;;;;;;;5.78;1.38;;;14.80;99.90;;;;;;5371259;26;20000;-82
2024/04/14 09:35:26;;;;;;;5.18;1.10;;;14.90;99.90;;;;;;5367290;26;20016;-81
2024/04/14 09:37:52;;;;;;;7.00;1.30;;;14.90;99.30;;;;;;5371268;26;20016;-80
2024/04/14 09:40:18;;;;;;;6.80;1.63;;;14.80;98.90;;;;;;5372676;26;20085;-81
2024/04/14 09:42:47;;;;;;;7.00;1.42;;;14.60;98.10;;;;;;5366722;26;20084;-80
2024/04/14 09:45:16;;;;;;;8.27;1.80;;;14.50;99.00;;;;;;5374386;26;20012;-81
2024/04/14 09:47:43;;;;;;;7.65;2.20;;;14.40;99.90;;;;;;5374226;26;20003;-80
2024/04/14 09:50:09;;;;;;;9.05;1.77;;;14.20;99.90;;;;;;5385710;26;20580;-79
2024/04/14 09:52:36;;;;;;;6.35;1.63;;;14.10;99.90;;;;;;5393961;26;19995;-80
2024/04/14 09:55:06;;;;;;;8.48;1.70;;;14.00;99.90;;;;;;5380794;26;20008;-81
2024/04/14 09:57:33;;;;;;;5.28;1.08;;;14.00;99.70;;;;;;5368229;26;20004;-81
2024/04/14 10:00:00;;;;;;;7.40;1.30;;;14.00;98.10;;;;;;5358399;26;20072;-82
2024/04/14 10:02:34;;;;;;;6.80;1.52;;;14.10;97.90;;;;;;5356757;26;20077;-82
2024/04/14 10:05:01;;;;;;;6.07;1.40;;;14.20;98.60;;;;;;5360988;26;20005;-82
2024/04/14 10:07:27;;;;;;;7.60;1.75;;;14.40;97.50;;;;;;5370017;26;20009;-81
2024/04/14 10:09:56;;;;;;;8.70;1.65;;;14.60;97.80;;;;;;5370447;26;19997;-82
2024/04/14 10:12:22;;;;;;;8.98;1.75;;;15.00;99.60;;;;;;5368258;26;20473;-83
2024/04/14 10:14:49;;;;;;;4.38;1.02;;;15.20;99.70;;;;;;5340167;26;20008;-78
2024/04/14 10:17:18;;;;;;;6.75;1.45;;;15.40;92.90;;;;;;5369433;26;20493;-81
2024/04/14 10:19:56;;;;;;;6.57;1.55;;;15.10;90.40;;;;;;5370009;26;20001;-82
2024/04/14 10:22:36;;;;;;;6.35;1.63;;;14.90;87.90;;;;;;5364517;26;20000;-81
2024/04/14 10:25:02;;;;;;;6.63;1.38;;;14.80;91.70;;;;;;5367971;26;20164;-79
2024/04/14 10:27:37;;;;;;;4.78;0.80;;;14.80;90.80;;;;;;5353256;26;20452;-80
2024/04/14 10:30:06;;;;;;;5.32;1.27;;;14.80;89.10;;;;;;5368692;26;20004;-78
2024/04/14 10:32:32;;;;;;;7.33;1.43;;;14.60;85.70;;;;;;5369438;26;20000;-81
2024/04/14 10:34:58;;;;;;;4.00;1.00;;;14.50;85.30;;;;;;5372031;26;20439;-78
2024/04/14 10:37:25;;;;;;;4.68;1.10;;;14.50;84.90;;;;;;5360899;26;20005;-79
2024/04/14 10:39:52;;;;;;;4.38;0.90;;;14.60;84.90;;;;;;5374949;26;20044;-81
2024/04/14 10:42:18;;;;;;;7.07;1.15;;;14.80;89.70;;;;;;5372942;26;20081;-80
2024/04/14 10:44:44;;;;;;;3.40;1.00;;;15.00;86.80;;;;;;5370379;26;20012;-78
2024/04/14 10:47:19;;;;;;;4.40;1.08;;;15.20;86.00;;;;;;5371552;26;20528;-81
2024/04/14 10:49:54;;;;;;;3.85;1.00;;;15.30;85.90;;;;;;5372145;26;20050;-81
2024/04/14 10:52:20;;;;;;;5.38;0.90;;;15.50;88.30;;;;;;5374507;26;20016;-81
2024/04/14 10:54:46;;;;;;;4.30;0.90;;;15.70;87.50;;;;;;5362237;26;20015;-81
2024/04/14 10:57:13;;;;;;;5.22;1.00;;;15.90;86.30;;;;;;5374144;26;20000;-81
2024/04/14 10:59:39;;;;;;;7.00;1.10;;;15.90;82.70;;;;;;5362094;26;20076;-81
2024/04/14 11:02:06;;;;;;;5.28;0.98;;;15.80;78.50;;;;;;5369194;26;20008;-84
2024/04/14 11:04:32;;;;;;;6.25;1.75;;;15.70;81.60;;;;;;5368134;26;20020;-80
2024/04/14 11:07:01;;;;;;;6.28;1.63;;;15.80;84.20;;;;;;5349867;26;19996;-81
2024/04/14 11:09:28;;;;;;;4.22;1.08;;;15.90;84.50;;;;;;5384196;26;20474;-85
2024/04/14 11:11:55;;;;;;;5.78;1.50;;;16.00;80.00;;;;;;5354508;26;20031;-81
2024/04/14 11:14:22;;;;;;;7.90;1.58;;;16.10;79.60;;;;;;5356297;26;20004;-83
2024/04/14 11:16:48;;;;;;;6.85;1.20;;;16.20;77.60;;;;;;5381504;26;21231;-82
2024/04/14 11:19:15;;;;;;;3.65;1.20;;;16.20;74.40;;;;;;5353732;26;20084;-82
2024/04/14 11:21:41;;;;;;;4.40;1.00;;;16.20;75.90;;;;;;5356957;26;20055;-81
2024/04/14 11:24:10;;;;;;;4.95;1.60;;;16.40;77.60;;;;;;5355906;26;20067;-82
2024/04/14 11:26:39;;;;;;;5.60;0.90;;;16.60;77.90;;;;;;5354627;26;20008;-82
2024/04/14 11:29:05;;;;;;;6.68;1.30;;;16.50;77.00;;;;;;5370047;26;20011;-81
2024/04/14 11:31:33;;;;;;;7.90;1.38;;;16.50;77.50;;;;;;5347439;26;20362;-82
2024/04/14 11:34:00;;;;;;;5.97;1.27;;;16.40;76.00;;;;;;5351762;26;20356;-82
2024/04/14 11:36:35;;;;;;;4.55;0.98;;;16.10;76.50;;;;;;5345958;26;22616;-83
2024/04/14 11:39:03;;;;;;;4.78;1.25;;;16.00;79.30;;;;;;5348601;26;20533;-84
2024/04/14 11:41:29;;;;;;;5.20;1.20;;;16.20;79.80;;;;;;5344747;26;20016;-82
2024/04/14 11:43:55;;;;;;;6.15;1.05;;;16.30;78.60;;;;;;5352211;26;20063;-83
2024/04/14 11:46:21;;;;;;;4.43;1.27;;;16.50;75.30;;;;;;5349657;26;20019;-82
2024/04/14 11:48:48;;;;;;;4.05;1.10;;;16.50;74.10;;;;;;5355462;26;20013;-82
2024/04/14 11:51:14;;;;;;;6.57;1.38;;;16.40;72.40;;;;;;5357945;26;20023;-84
2024/04/14 11:53:40;;;;;;;5.10;1.10;;;16.40;73.10;;;;;;5358298;26;20624;-83
2024/04/14 11:56:06;;;;;;;5.50;1.25;;;16.40;71.30;;;;;;5360659;26;20005;-83
2024/04/14 11:58:32;;;;;;;6.82;1.38;;;16.40;72.30;;;;;;5353925;26;20015;-82
2024/04/14 12:00:58;;;;;;;6.90;1.42;;;16.40;73.50;;;;;;5356890;26;20048;-82
2024/04/14 12:03:24;;;;;;;6.00;1.30;;;16.40;72.70;;;;;;5355389;26;20353;-82
2024/04/14 12:05:51;;;;;;;7.60;1.30;;;16.20;72.80;;;;;;5354671;26;20056;-82
2024/04/14 12:08:17;;;;;;;7.55;1.60;;;16.00;74.40;;;;;;5358495;26;20004;-82
2024/04/14 12:10:43;;;;;;;7.32;1.67;;;15.90;75.60;;;;;;5353722;26;20007;-82
2024/04/14 12:13:11;;;;;;;6.90;1.25;;;15.80;78.90;;;;;;5353701;26;20020;-81
2024/04/14 12:15:37;;;;;;;4.57;1.00;;;16.00;80.00;;;;;;5361686;26;20000;-82
2024/04/14 12:18:03;;;;;;;4.47;1.00;;;16.00;74.30;;;;;;5359986;26;20015;-82
2024/04/14 12:20:29;;;;;;;6.30;1.10;;;15.90;73.20;;;;;;5354409;26;20008;-80
2024/04/14 12:22:55;;;;;;;8.88;1.20;;;15.80;71.90;;;;;;5360062;26;20367;-82
2024/04/14 12:25:24;;;;;;;4.88;1.30;;;15.80;71.70;;;;;;5353661;26;20008;-82
2024/04/14 12:27:50;;;;;;;9.18;1.60;;;15.90;71.70;;;;;;5351838;26;20009;-83
2024/04/14 12:30:16;;;;;;;7.03;1.85;;;16.00;73.50;;;;;;5351187;26;20009;-82
2024/04/14 12:32:42;;;;;;;5.45;0.90;;;16.10;71.00;;;;;;5362568;26;20009;-82
2024/04/14 12:35:08;;;;;;;5.68;0.98;;;16.20;69.10;;;;;;5360113;26;20008;-83
2024/04/14 12:37:34;;;;;;;4.80;0.90;;;16.30;69.20;;;;;;5353080;26;20565;-83
2024/04/14 12:40:00;;;;;;;5.05;1.23;;;16.40;69.70;;;;;;5349892;26;20008;-83
2024/04/14 12:42:26;;;;;;;4.50;1.05;;;16.40;68.20;;;;;;5349614;26;20023;-82
2024/04/14 12:44:52;;;;;;;5.25;1.67;;;16.40;69.70;;;;;;5363750;26;20046;-84
2024/04/14 12:47:18;;;;;;;6.55;1.42;;;16.60;71.70;;;;;;5370598;26;20023;-82
2024/04/14 12:49:44;;;;;;;4.90;1.08;;;16.50;69.60;;;;;;5358291;26;20012;-82
2024/04/14 12:52:10;;;;;;;5.13;1.17;;;16.40;68.60;;;;;;5356305;26;20428;-82
2024/04/14 12:54:36;;;;;;;7.47;1.67;;;16.30;68.60;;;;;;5356535;26;20474;-82
2024/04/14 12:57:02;;;;;;;6.40;1.30;;;16.20;68.90;;;;;;5347073;26;20000;-83